sensor_id;sensor_type;location;lat;lon;timestamp;P1;durP1;ratioP1;P2;durP2;ratioP2
1366;SDS011;16877;48.810;9.282;2023-06-04T00:02:03;8.10;;;6.50;;
1366;SDS011;16877;48.810;9.282;2023-06-04T00:04:32;6.67;;;5.93;;
1366;SDS011;16877;48.810;9.282;2023-06-04T00:07:00;6.30;;;5.70;;
1366;SDS011;16877;48.810;9.282;2023-06-04T00:09:27;5.70;;;5.20;;
1366;SDS011;16877;48.810;9.282;2023-06-04T00:11:54;6.67;;;5.97;;
1366;SDS011;16877;48.810;9.282;2023-06-04T00:14:22;7.07;;;6.30;;
1366;SDS011;16877;48.810;9.282;2023-06-04T00:16:52;6.50;;;5.80;;
1366;SDS011;16877;48.810;9.282;2023-06-04T00:19:20;6.47;;;5.80;;
1366;SDS011;16877;48.810;9.282;2023-06-04T00:21:49;6.80;;;5.57;;
1366;SDS011;16877;48.810;9.282;2023-06-04T00:24:16;6.43;;;5.83;;
1366;SDS011;16877;48.810;9.282;2023-06-04T00:26:48;6.50;;;5.90;;
1366;SDS011;16877;48.810;9.282;2023-06-04T00:29:15;6.80;;;6.10;;
1366;SDS011;16877;48.810;9.282;2023-06-04T00:31:43;6.30;;;5.60;;
1366;SDS011;16877;48.810;9.282;2023-06-04T00:34:25;5.90;;;5.27;;
1366;SDS011;16877;48.810;9.282;2023-06-04T00:36:54;5.50;;;5.00;;
1366;SDS011;16877;48.810;9.282;2023-06-04T00:39:22;7.23;;;5.40;;
1366;SDS011;16877;48.810;9.282;2023-06-04T00:41:50;6.53;;;5.23;;
1366;SDS011;16877;48.810;9.282;2023-06-04T00:44:18;5.30;;;4.70;;
1366;SDS011;16877;48.810;9.282;2023-06-04T00:46:46;6.10;;;5.23;;
1366;SDS011;16877;48.810;9.282;2023-06-04T00:49:14;5.37;;;4.60;;
1366;SDS011;16877;48.810;9.282;2023-06-04T00:51:41;8.57;;;5.67;;
1366;SDS011;16877;48.810;9.282;2023-06-04T00:54:11;6.03;;;4.73;;
1366;SDS011;16877;48.810;9.282;2023-06-04T00:56:50;6.50;;;5.50;;
1366;SDS011;16877;48.810;9.282;2023-06-04T00:59:21;6.67;;;5.97;;
1366;SDS011;16877;48.810;9.282;2023-06-04T01:01:49;6.97;;;5.77;;
1366;SDS011;16877;48.810;9.282;2023-06-04T01:04:26;6.50;;;5.90;;
1366;SDS011;16877;48.810;9.282;2023-06-04T01:06:57;5.93;;;5.30;;
1366;SDS011;16877;48.810;9.282;2023-06-04T01:09:30;7.33;;;6.43;;
1366;SDS011;16877;48.810;9.282;2023-06-04T01:11:59;6.67;;;5.80;;
1366;SDS011;16877;48.810;9.282;2023-06-04T01:14:29;6.47;;;5.87;;
1366;SDS011;16877;48.810;9.282;2023-06-04T01:16:59;7.97;;;6.20;;
1366;SDS011;16877;48.810;9.282;2023-06-04T01:19:38;6.73;;;6.03;;
1366;SDS011;16877;48.810;9.282;2023-06-04T01:22:27;6.80;;;6.10;;
1366;SDS011;16877;48.810;9.282;2023-06-04T01:25:03;6.53;;;5.90;;
1366;SDS011;16877;48.810;9.282;2023-06-04T01:27:34;6.47;;;5.87;;
1366;SDS011;16877;48.810;9.282;2023-06-04T01:30:03;7.23;;;5.90;;
1366;SDS011;16877;48.810;9.282;2023-06-04T01:32:31;6.20;;;5.53;;
1366;SDS011;16877;48.810;9.282;2023-06-04T01:35:00;6.20;;;5.00;;
1366;SDS011;16877;48.810;9.282;2023-06-04T01:37:28;7.10;;;6.00;;
1366;SDS011;16877;48.810;9.282;2023-06-04T01:39:56;6.63;;;5.30;;
1366;SDS011;16877;48.810;9.282;2023-06-04T01:42:25;6.13;;;5.50;;
1366;SDS011;16877;48.810;9.282;2023-06-04T01:44:56;6.83;;;6.13;;
1366;SDS011;16877;48.810;9.282;2023-06-04T01:47:24;7.50;;;6.33;;
1366;SDS011;16877;48.810;9.282;2023-06-04T01:49:52;8.70;;;6.70;;
1366;SDS011;16877;48.810;9.282;2023-06-04T01:52:19;6.60;;;5.23;;
1366;SDS011;16877;48.810;9.282;2023-06-04T01:54:47;8.10;;;5.77;;
1366;SDS011;16877;48.810;9.282;2023-06-04T01:57:17;6.30;;;5.70;;
1366;SDS011;16877;48.810;9.282;2023-06-04T01:59:47;6.00;;;5.30;;
1366;SDS011;16877;48.810;9.282;2023-06-04T02:02:16;6.10;;;5.10;;
1366;SDS011;16877;48.810;9.282;2023-06-04T02:04:43;6.30;;;5.10;;
1366;SDS011;16877;48.810;9.282;2023-06-04T02:07:12;6.13;;;5.53;;
1366;SDS011;16877;48.810;9.282;2023-06-04T02:09:43;5.30;;;4.73;;
1366;SDS011;16877;48.810;9.282;2023-06-04T02:12:10;5.53;;;5.03;;
1366;SDS011;16877;48.810;9.282;2023-06-04T02:14:37;5.60;;;5.10;;
1366;SDS011;16877;48.810;9.282;2023-06-04T02:17:09;6.87;;;5.83;;
1366;SDS011;16877;48.810;9.282;2023-06-04T02:19:38;6.20;;;5.20;;
1366;SDS011;16877;48.810;9.282;2023-06-04T02:22:10;7.57;;;6.00;;
1366;SDS011;16877;48.810;9.282;2023-06-04T02:24:37;5.47;;;4.97;;
1366;SDS011;16877;48.810;9.282;2023-06-04T02:27:07;5.50;;;5.00;;
1366;SDS011;16877;48.810;9.282;2023-06-04T02:29:35;5.60;;;4.97;;
1366;SDS011;16877;48.810;9.282;2023-06-04T02:32:03;7.97;;;5.37;;
1366;SDS011;16877;48.810;9.282;2023-06-04T02:34:32;5.63;;;4.90;;
1366;SDS011;16877;48.810;9.282;2023-06-04T02:37:00;6.07;;;5.30;;
1366;SDS011;16877;48.810;9.282;2023-06-04T02:39:28;6.10;;;5.50;;
1366;SDS011;16877;48.810;9.282;2023-06-04T02:41:56;5.10;;;4.60;;
1366;SDS011;16877;48.810;9.282;2023-06-04T02:44:23;5.80;;;5.20;;
1366;SDS011;16877;48.810;9.282;2023-06-04T02:46:51;5.57;;;4.80;;
1366;SDS011;16877;48.810;9.282;2023-06-04T02:49:22;5.43;;;4.67;;
1366;SDS011;16877;48.810;9.282;2023-06-04T02:51:51;5.50;;;4.90;;
1366;SDS011;16877;48.810;9.282;2023-06-04T02:54:19;7.40;;;5.70;;
1366;SDS011;16877;48.810;9.282;2023-06-04T02:56:47;7.10;;;5.20;;
1366;SDS011;16877;48.810;9.282;2023-06-04T02:59:16;7.63;;;5.57;;
1366;SDS011;16877;48.810;9.282;2023-06-04T03:01:44;5.90;;;5.30;;
1366;SDS011;16877;48.810;9.282;2023-06-04T03:04:11;6.00;;;5.37;;
1366;SDS011;16877;48.810;9.282;2023-06-04T03:06:40;7.67;;;5.40;;
1366;SDS011;16877;48.810;9.282;2023-06-04T03:09:11;5.77;;;4.80;;
1366;SDS011;16877;48.810;9.282;2023-06-04T03:11:39;6.23;;;5.23;;
1366;SDS011;16877;48.810;9.282;2023-06-04T03:14:06;5.53;;;4.57;;
1366;SDS011;16877;48.810;9.282;2023-06-04T03:16:37;6.53;;;5.37;;
1366;SDS011;16877;48.810;9.282;2023-06-04T03:19:04;5.83;;;4.77;;
1366;SDS011;16877;48.810;9.282;2023-06-04T03:21:33;9.43;;;5.37;;
1366;SDS011;16877;48.810;9.282;2023-06-04T03:24:00;7.40;;;5.57;;
1366;SDS011;16877;48.810;9.282;2023-06-04T03:26:29;7.77;;;5.50;;
1366;SDS011;16877;48.810;9.282;2023-06-04T03:28:57;6.20;;;4.97;;
1366;SDS011;16877;48.810;9.282;2023-06-04T03:31:25;6.37;;;5.60;;
1366;SDS011;16877;48.810;9.282;2023-06-04T03:33:52;6.90;;;5.47;;
1366;SDS011;16877;48.810;9.282;2023-06-04T03:36:20;6.97;;;5.60;;
1366;SDS011;16877;48.810;9.282;2023-06-04T03:38:56;6.23;;;4.80;;
1366;SDS011;16877;48.810;9.282;2023-06-04T03:41:24;7.50;;;5.00;;
1366;SDS011;16877;48.810;9.282;2023-06-04T03:43:53;9.30;;;5.70;;
1366;SDS011;16877;48.810;9.282;2023-06-04T03:46:21;5.50;;;5.00;;
1366;SDS011;16877;48.810;9.282;2023-06-04T03:48:50;6.00;;;4.67;;
1366;SDS011;16877;48.810;9.282;2023-06-04T03:51:17;5.83;;;5.00;;
1366;SDS011;16877;48.810;9.282;2023-06-04T03:53:46;5.80;;;4.90;;
1366;SDS011;16877;48.810;9.282;2023-06-04T03:56:14;7.23;;;5.30;;
1366;SDS011;16877;48.810;9.282;2023-06-04T03:58:41;5.60;;;4.57;;
1366;SDS011;16877;48.810;9.282;2023-06-04T04:01:10;5.03;;;4.53;;
1366;SDS011;16877;48.810;9.282;2023-06-04T04:03:37;5.90;;;4.80;;
1366;SDS011;16877;48.810;9.282;2023-06-04T04:06:05;7.67;;;5.93;;
1366;SDS011;16877;48.810;9.282;2023-06-04T04:08:32;6.33;;;5.40;;
1366;SDS011;16877;48.810;9.282;2023-06-04T04:11:00;6.97;;;5.27;;
1366;SDS011;16877;48.810;9.282;2023-06-04T04:13:27;6.47;;;5.87;;
1366;SDS011;16877;48.810;9.282;2023-06-04T04:15:55;6.30;;;5.70;;
1366;SDS011;16877;48.810;9.282;2023-06-04T04:18:24;5.97;;;5.23;;
1366;SDS011;16877;48.810;9.282;2023-06-04T04:20:51;5.53;;;4.93;;
1366;SDS011;16877;48.810;9.282;2023-06-04T04:23:21;6.27;;;5.17;;
1366;SDS011;16877;48.810;9.282;2023-06-04T04:25:48;6.70;;;5.40;;
1366;SDS011;16877;48.810;9.282;2023-06-04T04:28:16;8.43;;;5.10;;
1366;SDS011;16877;48.810;9.282;2023-06-04T04:30:44;6.13;;;4.40;;
1366;SDS011;16877;48.810;9.282;2023-06-04T04:33:13;5.63;;;4.50;;
1366;SDS011;16877;48.810;9.282;2023-06-04T04:35:44;5.80;;;4.57;;
1366;SDS011;16877;48.810;9.282;2023-06-04T04:38:13;5.80;;;4.97;;
1366;SDS011;16877;48.810;9.282;2023-06-04T04:40:42;5.20;;;4.47;;
1366;SDS011;16877;48.810;9.282;2023-06-04T04:43:12;5.53;;;4.93;;
1366;SDS011;16877;48.810;9.282;2023-06-04T04:45:40;5.30;;;4.37;;
1366;SDS011;16877;48.810;9.282;2023-06-04T04:48:08;5.40;;;4.70;;
1366;SDS011;16877;48.810;9.282;2023-06-04T04:50:36;7.40;;;4.33;;
1366;SDS011;16877;48.810;9.282;2023-06-04T04:53:10;5.37;;;4.53;;
1366;SDS011;16877;48.810;9.282;2023-06-04T04:55:37;4.93;;;4.43;;
1366;SDS011;16877;48.810;9.282;2023-06-04T04:58:05;5.20;;;4.17;;
1366;SDS011;16877;48.810;9.282;2023-06-04T05:00:47;5.47;;;4.27;;
1366;SDS011;16877;48.810;9.282;2023-06-04T05:03:14;4.47;;;4.03;;
1366;SDS011;16877;48.810;9.282;2023-06-04T05:05:42;6.30;;;4.63;;
1366;SDS011;16877;48.810;9.282;2023-06-04T05:08:11;4.80;;;4.20;;
1366;SDS011;16877;48.810;9.282;2023-06-04T05:10:38;5.33;;;4.80;;
1366;SDS011;16877;48.810;9.282;2023-06-04T05:13:21;4.63;;;4.07;;
1366;SDS011;16877;48.810;9.282;2023-06-04T05:15:49;5.77;;;4.00;;
1366;SDS011;16877;48.810;9.282;2023-06-04T05:18:17;4.73;;;3.80;;
1366;SDS011;16877;48.810;9.282;2023-06-04T05:20:46;5.13;;;4.10;;
1366;SDS011;16877;48.810;9.282;2023-06-04T05:23:20;5.00;;;4.33;;
1366;SDS011;16877;48.810;9.282;2023-06-04T05:25:48;5.27;;;4.17;;
1366;SDS011;16877;48.810;9.282;2023-06-04T05:28:15;4.43;;;3.77;;
1366;SDS011;16877;48.810;9.282;2023-06-04T05:30:43;4.17;;;2.90;;
1366;SDS011;16877;48.810;9.282;2023-06-04T05:33:13;4.07;;;3.50;;
1366;SDS011;16877;48.810;9.282;2023-06-04T05:35:44;5.33;;;3.57;;
1366;SDS011;16877;48.810;9.282;2023-06-04T05:38:28;3.90;;;3.20;;
1366;SDS011;16877;48.810;9.282;2023-06-04T05:41:00;4.27;;;3.17;;
1366;SDS011;16877;48.810;9.282;2023-06-04T05:43:27;3.63;;;2.60;;
1366;SDS011;16877;48.810;9.282;2023-06-04T05:46:05;3.83;;;2.93;;
1366;SDS011;16877;48.810;9.282;2023-06-04T05:48:38;4.80;;;3.43;;
1366;SDS011;16877;48.810;9.282;2023-06-04T05:51:06;3.57;;;2.40;;
1366;SDS011;16877;48.810;9.282;2023-06-04T05:53:35;2.80;;;2.10;;
1366;SDS011;16877;48.810;9.282;2023-06-04T05:56:02;3.30;;;2.60;;
1366;SDS011;16877;48.810;9.282;2023-06-04T05:58:32;3.30;;;2.33;;
1366;SDS011;16877;48.810;9.282;2023-06-04T06:01:03;4.00;;;2.67;;
1366;SDS011;16877;48.810;9.282;2023-06-04T06:03:31;3.80;;;2.40;;
1366;SDS011;16877;48.810;9.282;2023-06-04T06:05:59;4.57;;;2.40;;
1366;SDS011;16877;48.810;9.282;2023-06-04T06:08:26;3.70;;;1.90;;
1366;SDS011;16877;48.810;9.282;2023-06-04T06:10:56;3.23;;;2.20;;
1366;SDS011;16877;48.810;9.282;2023-06-04T06:13:29;2.57;;;1.50;;
1366;SDS011;16877;48.810;9.282;2023-06-04T06:15:56;2.93;;;2.03;;
1366;SDS011;16877;48.810;9.282;2023-06-04T06:18:23;3.43;;;1.90;;
1366;SDS011;16877;48.810;9.282;2023-06-04T06:20:51;3.00;;;2.00;;
1366;SDS011;16877;48.810;9.282;2023-06-04T06:23:19;3.10;;;1.93;;
1366;SDS011;16877;48.810;9.282;2023-06-04T06:25:49;2.97;;;1.97;;
1366;SDS011;16877;48.810;9.282;2023-06-04T06:28:18;3.20;;;2.20;;
1366;SDS011;16877;48.810;9.282;2023-06-04T06:30:46;2.97;;;1.90;;
1366;SDS011;16877;48.810;9.282;2023-06-04T06:33:14;4.03;;;2.40;;
1366;SDS011;16877;48.810;9.282;2023-06-04T06:35:41;5.20;;;1.90;;
1366;SDS011;16877;48.810;9.282;2023-06-04T06:38:12;3.07;;;2.10;;
1366;SDS011;16877;48.810;9.282;2023-06-04T06:40:42;3.30;;;2.20;;
1366;SDS011;16877;48.810;9.282;2023-06-04T06:43:10;2.90;;;2.20;;
1366;SDS011;16877;48.810;9.282;2023-06-04T06:45:39;4.20;;;2.40;;
1366;SDS011;16877;48.810;9.282;2023-06-04T06:48:10;3.17;;;2.53;;
1366;SDS011;16877;48.810;9.282;2023-06-04T06:50:37;2.50;;;1.83;;
1366;SDS011;16877;48.810;9.282;2023-06-04T06:53:20;3.10;;;2.13;;
1366;SDS011;16877;48.810;9.282;2023-06-04T06:55:47;3.00;;;1.93;;
1366;SDS011;16877;48.810;9.282;2023-06-04T06:58:16;3.10;;;2.03;;
1366;SDS011;16877;48.810;9.282;2023-06-04T07:00:45;3.80;;;2.10;;
1366;SDS011;16877;48.810;9.282;2023-06-04T07:03:13;2.73;;;1.87;;
1366;SDS011;16877;48.810;9.282;2023-06-04T07:05:41;3.17;;;1.87;;
1366;SDS011;16877;48.810;9.282;2023-06-04T07:08:08;3.00;;;2.00;;
1366;SDS011;16877;48.810;9.282;2023-06-04T07:10:36;3.13;;;1.97;;
1366;SDS011;16877;48.810;9.282;2023-06-04T07:13:06;4.40;;;2.07;;
1366;SDS011;16877;48.810;9.282;2023-06-04T07:15:34;3.30;;;2.03;;
1366;SDS011;16877;48.810;9.282;2023-06-04T07:18:13;4.67;;;2.30;;
1366;SDS011;16877;48.810;9.282;2023-06-04T07:20:41;3.00;;;2.10;;
1366;SDS011;16877;48.810;9.282;2023-06-04T07:23:08;2.97;;;2.13;;
1366;SDS011;16877;48.810;9.282;2023-06-04T07:25:36;3.20;;;2.30;;
1366;SDS011;16877;48.810;9.282;2023-06-04T07:28:05;3.10;;;2.00;;
1366;SDS011;16877;48.810;9.282;2023-06-04T07:30:32;3.90;;;2.77;;
1366;SDS011;16877;48.810;9.282;2023-06-04T07:33:01;4.57;;;2.27;;
1366;SDS011;16877;48.810;9.282;2023-06-04T07:35:30;3.50;;;2.50;;
1366;SDS011;16877;48.810;9.282;2023-06-04T07:37:58;2.87;;;2.20;;
1366;SDS011;16877;48.810;9.282;2023-06-04T07:40:25;2.73;;;1.90;;
1366;SDS011;16877;48.810;9.282;2023-06-04T07:42:53;4.20;;;2.30;;
1366;SDS011;16877;48.810;9.282;2023-06-04T07:45:20;3.93;;;3.03;;
1366;SDS011;16877;48.810;9.282;2023-06-04T07:47:47;2.83;;;2.07;;
1366;SDS011;16877;48.810;9.282;2023-06-04T07:50:16;3.23;;;2.00;;
1366;SDS011;16877;48.810;9.282;2023-06-04T07:52:45;3.13;;;2.20;;
1366;SDS011;16877;48.810;9.282;2023-06-04T07:55:12;4.27;;;2.43;;
1366;SDS011;16877;48.810;9.282;2023-06-04T07:57:40;3.23;;;2.40;;
1366;SDS011;16877;48.810;9.282;2023-06-04T08:00:08;3.87;;;2.50;;
1366;SDS011;16877;48.810;9.282;2023-06-04T08:02:37;2.80;;;2.10;;
1366;SDS011;16877;48.810;9.282;2023-06-04T08:05:05;3.80;;;2.57;;
1366;SDS011;16877;48.810;9.282;2023-06-04T08:07:33;3.30;;;2.50;;
1366;SDS011;16877;48.810;9.282;2023-06-04T08:10:02;3.20;;;2.30;;
1366;SDS011;16877;48.810;9.282;2023-06-04T08:12:30;3.83;;;2.40;;
1366;SDS011;16877;48.810;9.282;2023-06-04T08:15:01;3.00;;;2.17;;
1366;SDS011;16877;48.810;9.282;2023-06-04T08:17:32;3.20;;;2.27;;
1366;SDS011;16877;48.810;9.282;2023-06-04T08:20:00;3.17;;;2.07;;
1366;SDS011;16877;48.810;9.282;2023-06-04T08:22:31;3.73;;;2.33;;
1366;SDS011;16877;48.810;9.282;2023-06-04T08:24:59;3.13;;;2.13;;
1366;SDS011;16877;48.810;9.282;2023-06-04T08:27:28;4.33;;;2.80;;
1366;SDS011;16877;48.810;9.282;2023-06-04T08:29:55;5.60;;;2.63;;
1366;SDS011;16877;48.810;9.282;2023-06-04T08:32:23;3.70;;;2.33;;
1366;SDS011;16877;48.810;9.282;2023-06-04T08:34:50;3.40;;;2.27;;
1366;SDS011;16877;48.810;9.282;2023-06-04T08:37:18;4.80;;;2.70;;
1366;SDS011;16877;48.810;9.282;2023-06-04T08:39:46;4.60;;;2.50;;
1366;SDS011;16877;48.810;9.282;2023-06-04T08:42:15;4.67;;;3.00;;
1366;SDS011;16877;48.810;9.282;2023-06-04T08:44:48;3.80;;;2.50;;
1366;SDS011;16877;48.810;9.282;2023-06-04T08:47:18;3.83;;;2.80;;
1366;SDS011;16877;48.810;9.282;2023-06-04T08:49:47;3.57;;;2.27;;
1366;SDS011;16877;48.810;9.282;2023-06-04T08:52:16;4.80;;;2.17;;
1366;SDS011;16877;48.810;9.282;2023-06-04T08:54:47;3.33;;;2.17;;
1366;SDS011;16877;48.810;9.282;2023-06-04T08:57:16;3.40;;;2.37;;
1366;SDS011;16877;48.810;9.282;2023-06-04T08:59:49;3.50;;;2.60;;
1366;SDS011;16877;48.810;9.282;2023-06-04T09:02:17;3.13;;;2.27;;
1366;SDS011;16877;48.810;9.282;2023-06-04T09:04:45;4.43;;;2.27;;
1366;SDS011;16877;48.810;9.282;2023-06-04T09:07:13;4.03;;;2.70;;
1366;SDS011;16877;48.810;9.282;2023-06-04T09:09:44;3.33;;;2.70;;
1366;SDS011;16877;48.810;9.282;2023-06-04T09:12:15;3.87;;;2.97;;
1366;SDS011;16877;48.810;9.282;2023-06-04T09:14:45;4.00;;;2.80;;
1366;SDS011;16877;48.810;9.282;2023-06-04T09:17:20;3.70;;;2.60;;
1366;SDS011;16877;48.810;9.282;2023-06-04T09:19:50;4.50;;;2.50;;
1366;SDS011;16877;48.810;9.282;2023-06-04T09:22:18;3.43;;;2.17;;
1366;SDS011;16877;48.810;9.282;2023-06-04T09:24:47;3.40;;;2.83;;
1366;SDS011;16877;48.810;9.282;2023-06-04T09:27:17;4.43;;;2.40;;
1366;SDS011;16877;48.810;9.282;2023-06-04T09:29:51;4.20;;;2.67;;
1366;SDS011;16877;48.810;9.282;2023-06-04T09:32:22;3.27;;;2.33;;
1366;SDS011;16877;48.810;9.282;2023-06-04T09:34:50;4.90;;;2.73;;
1366;SDS011;16877;48.810;9.282;2023-06-04T09:37:18;4.80;;;3.07;;
1366;SDS011;16877;48.810;9.282;2023-06-04T09:39:52;4.40;;;3.47;;
1366;SDS011;16877;48.810;9.282;2023-06-04T09:42:20;3.30;;;2.43;;
1366;SDS011;16877;48.810;9.282;2023-06-04T09:44:47;4.50;;;2.90;;
1366;SDS011;16877;48.810;9.282;2023-06-04T09:47:16;4.20;;;2.27;;
1366;SDS011;16877;48.810;9.282;2023-06-04T09:49:44;3.83;;;2.63;;
1366;SDS011;16877;48.810;9.282;2023-06-04T09:52:14;4.30;;;2.80;;
1366;SDS011;16877;48.810;9.282;2023-06-04T09:54:58;4.67;;;2.80;;
1366;SDS011;16877;48.810;9.282;2023-06-04T09:57:25;4.80;;;3.10;;
1366;SDS011;16877;48.810;9.282;2023-06-04T09:59:57;5.13;;;3.20;;
1366;SDS011;16877;48.810;9.282;2023-06-04T10:02:39;4.00;;;3.10;;
1366;SDS011;16877;48.810;9.282;2023-06-04T10:05:07;4.10;;;2.90;;
1366;SDS011;16877;48.810;9.282;2023-06-04T10:07:39;3.97;;;3.27;;
1366;SDS011;16877;48.810;9.282;2023-06-04T10:10:14;4.00;;;3.23;;
1366;SDS011;16877;48.810;9.282;2023-06-04T10:12:44;7.30;;;3.60;;
1366;SDS011;16877;48.810;9.282;2023-06-04T10:15:17;3.97;;;3.20;;
1366;SDS011;16877;48.810;9.282;2023-06-04T10:17:47;4.37;;;2.63;;
1366;SDS011;16877;48.810;9.282;2023-06-04T10:20:16;8.10;;;3.33;;
1366;SDS011;16877;48.810;9.282;2023-06-04T10:22:45;3.90;;;3.10;;
1366;SDS011;16877;48.810;9.282;2023-06-04T10:25:16;3.37;;;2.80;;
1366;SDS011;16877;48.810;9.282;2023-06-04T10:27:45;3.90;;;3.20;;
1366;SDS011;16877;48.810;9.282;2023-06-04T10:30:13;5.03;;;3.23;;
1366;SDS011;16877;48.810;9.282;2023-06-04T10:32:44;3.77;;;3.23;;
1366;SDS011;16877;48.810;9.282;2023-06-04T10:35:14;4.10;;;2.70;;
1366;SDS011;16877;48.810;9.282;2023-06-04T10:37:42;4.63;;;3.23;;
1366;SDS011;16877;48.810;9.282;2023-06-04T10:40:30;4.40;;;2.80;;
1366;SDS011;16877;48.810;9.282;2023-06-04T10:43:04;4.70;;;3.40;;
1366;SDS011;16877;48.810;9.282;2023-06-04T10:45:32;3.50;;;2.70;;
1366;SDS011;16877;48.810;9.282;2023-06-04T10:48:02;4.57;;;3.53;;
1366;SDS011;16877;48.810;9.282;2023-06-04T10:50:30;5.40;;;3.17;;
1366;SDS011;16877;48.810;9.282;2023-06-04T10:52:58;4.17;;;3.10;;
1366;SDS011;16877;48.810;9.282;2023-06-04T10:55:28;6.53;;;3.20;;
1366;SDS011;16877;48.810;9.282;2023-06-04T10:57:56;4.07;;;2.90;;
1366;SDS011;16877;48.810;9.282;2023-06-04T11:00:34;4.53;;;3.03;;
1366;SDS011;16877;48.810;9.282;2023-06-04T11:03:03;4.90;;;3.23;;
1366;SDS011;16877;48.810;9.282;2023-06-04T11:05:34;4.33;;;3.43;;
1366;SDS011;16877;48.810;9.282;2023-06-04T11:08:04;4.37;;;3.60;;
1366;SDS011;16877;48.810;9.282;2023-06-04T11:10:33;3.60;;;3.00;;
1366;SDS011;16877;48.810;9.282;2023-06-04T11:13:01;3.33;;;2.73;;
1366;SDS011;16877;48.810;9.282;2023-06-04T11:15:37;4.50;;;3.40;;
1366;SDS011;16877;48.810;9.282;2023-06-04T11:18:06;4.50;;;3.67;;
1366;SDS011;16877;48.810;9.282;2023-06-04T11:20:34;4.50;;;3.17;;
1366;SDS011;16877;48.810;9.282;2023-06-04T11:23:01;4.87;;;3.43;;
1366;SDS011;16877;48.810;9.282;2023-06-04T11:25:31;4.15;;;3.58;;
1366;SDS011;16877;48.810;9.282;2023-06-04T11:27:59;3.78;;;3.28;;
1366;SDS011;16877;48.810;9.282;2023-06-04T11:30:28;4.05;;;3.65;;
1366;SDS011;16877;48.810;9.282;2023-06-04T11:33:02;3.85;;;3.38;;
1366;SDS011;16877;48.810;9.282;2023-06-04T11:35:38;4.03;;;3.38;;
1366;SDS011;16877;48.810;9.282;2023-06-04T11:38:06;4.05;;;3.65;;
1366;SDS011;16877;48.810;9.282;2023-06-04T11:40:34;4.18;;;3.30;;
1366;SDS011;16877;48.810;9.282;2023-06-04T11:43:02;4.82;;;3.22;;
1366;SDS011;16877;48.810;9.282;2023-06-04T11:45:30;3.70;;;3.30;;
1366;SDS011;16877;48.810;9.282;2023-06-04T11:47:58;3.53;;;2.80;;
1366;SDS011;16877;48.810;9.282;2023-06-04T11:50:26;3.40;;;2.63;;
1366;SDS011;16877;48.810;9.282;2023-06-04T11:52:57;3.85;;;3.10;;
1366;SDS011;16877;48.810;9.282;2023-06-04T11:55:26;4.78;;;3.50;;
1366;SDS011;16877;48.810;9.282;2023-06-04T11:57:56;4.85;;;3.42;;
1366;SDS011;16877;48.810;9.282;2023-06-04T12:00:23;5.82;;;4.10;;
1366;SDS011;16877;48.810;9.282;2023-06-04T12:02:52;3.83;;;3.38;;
1366;SDS011;16877;48.810;9.282;2023-06-04T12:05:20;3.65;;;3.28;;
1366;SDS011;16877;48.810;9.282;2023-06-04T12:07:49;4.50;;;3.17;;
1366;SDS011;16877;48.810;9.282;2023-06-04T12:10:19;5.28;;;3.88;;
1366;SDS011;16877;48.810;9.282;2023-06-04T12:12:53;4.05;;;3.25;;
1366;SDS011;16877;48.810;9.282;2023-06-04T12:15:21;4.32;;;3.42;;
1366;SDS011;16877;48.810;9.282;2023-06-04T12:17:52;4.25;;;3.20;;
1366;SDS011;16877;48.810;9.282;2023-06-04T12:20:30;3.97;;;3.50;;
1366;SDS011;16877;48.810;9.282;2023-06-04T12:22:59;4.68;;;3.45;;
1366;SDS011;16877;48.810;9.282;2023-06-04T12:25:28;3.80;;;3.17;;
1366;SDS011;16877;48.810;9.282;2023-06-04T12:27:56;4.68;;;3.00;;
1366;SDS011;16877;48.810;9.282;2023-06-04T12:30:34;3.20;;;2.90;;
1366;SDS011;16877;48.810;9.282;2023-06-04T12:33:02;5.80;;;3.60;;
1366;SDS011;16877;48.810;9.282;2023-06-04T12:35:33;4.07;;;3.50;;
1366;SDS011;16877;48.810;9.282;2023-06-04T12:38:02;3.85;;;3.42;;
1366;SDS011;16877;48.810;9.282;2023-06-04T12:40:31;3.70;;;3.30;;
1366;SDS011;16877;48.810;9.282;2023-06-04T12:43:14;7.15;;;3.47;;
1366;SDS011;16877;48.810;9.282;2023-06-04T12:45:41;4.20;;;3.30;;
1366;SDS011;16877;48.810;9.282;2023-06-04T12:48:10;4.63;;;3.28;;
1366;SDS011;16877;48.810;9.282;2023-06-04T12:50:38;4.47;;;3.75;;
1366;SDS011;16877;48.810;9.282;2023-06-04T12:53:05;4.43;;;3.47;;
1366;SDS011;16877;48.810;9.282;2023-06-04T12:55:34;4.43;;;3.50;;
1366;SDS011;16877;48.810;9.282;2023-06-04T12:58:01;3.72;;;3.33;;
1366;SDS011;16877;48.810;9.282;2023-06-04T13:00:29;4.28;;;3.65;;
1366;SDS011;16877;48.810;9.282;2023-06-04T13:03:11;4.43;;;3.65;;
1366;SDS011;16877;48.810;9.282;2023-06-04T13:05:38;3.80;;;3.40;;
1366;SDS011;16877;48.810;9.282;2023-06-04T13:08:06;4.30;;;3.90;;
1366;SDS011;16877;48.810;9.282;2023-06-04T13:10:50;4.60;;;3.75;;
1366;SDS011;16877;48.810;9.282;2023-06-04T13:13:18;5.85;;;3.83;;
1366;SDS011;16877;48.810;9.282;2023-06-04T13:15:46;4.95;;;3.97;;
1366;SDS011;16877;48.810;9.282;2023-06-04T13:18:14;4.40;;;3.88;;
1366;SDS011;16877;48.810;9.282;2023-06-04T13:20:42;4.72;;;4.07;;
1366;SDS011;16877;48.810;9.282;2023-06-04T13:23:09;4.10;;;3.70;;
1366;SDS011;16877;48.810;9.282;2023-06-04T13:25:37;4.43;;;4.00;;
1366;SDS011;16877;48.810;9.282;2023-06-04T13:28:06;4.05;;;3.65;;
1366;SDS011;16877;48.810;9.282;2023-06-04T13:30:37;4.10;;;3.60;;
1366;SDS011;16877;48.810;9.282;2023-06-04T13:33:05;4.32;;;3.30;;
1366;SDS011;16877;48.810;9.282;2023-06-04T13:35:33;3.78;;;3.22;;
1366;SDS011;16877;48.810;9.282;2023-06-04T13:38:00;4.07;;;3.45;;
1366;SDS011;16877;48.810;9.282;2023-06-04T13:40:30;3.63;;;3.00;;
1366;SDS011;16877;48.810;9.282;2023-06-04T13:42:58;3.95;;;3.40;;
1366;SDS011;16877;48.810;9.282;2023-06-04T13:45:26;3.58;;;3.00;;
1366;SDS011;16877;48.810;9.282;2023-06-04T13:47:54;4.88;;;3.40;;
1366;SDS011;16877;48.810;9.282;2023-06-04T13:50:27;3.90;;;3.17;;
1366;SDS011;16877;48.810;9.282;2023-06-04T13:52:55;4.22;;;3.50;;
1366;SDS011;16877;48.810;9.282;2023-06-04T13:55:22;3.90;;;3.50;;
1366;SDS011;16877;48.810;9.282;2023-06-04T13:57:50;7.45;;;3.50;;
1366;SDS011;16877;48.810;9.282;2023-06-04T14:00:17;4.55;;;3.88;;
1366;SDS011;16877;48.810;9.282;2023-06-04T14:02:49;3.50;;;3.00;;
1366;SDS011;16877;48.810;9.282;2023-06-04T14:05:17;4.10;;;3.70;;
1366;SDS011;16877;48.810;9.282;2023-06-04T14:07:45;3.70;;;3.33;;
1366;SDS011;16877;48.810;9.282;2023-06-04T14:10:12;3.70;;;3.35;;
1366;SDS011;16877;48.810;9.282;2023-06-04T14:12:40;4.05;;;3.25;;
1366;SDS011;16877;48.810;9.282;2023-06-04T14:15:09;4.63;;;3.63;;
1366;SDS011;16877;48.810;9.282;2023-06-04T14:17:37;3.95;;;3.55;;
1366;SDS011;16877;48.810;9.282;2023-06-04T14:20:08;6.50;;;3.67;;
1366;SDS011;16877;48.810;9.282;2023-06-04T14:22:39;3.80;;;3.38;;
1366;SDS011;16877;48.810;9.282;2023-06-04T14:25:07;3.90;;;3.50;;
1366;SDS011;16877;48.810;9.282;2023-06-04T14:27:35;4.10;;;3.60;;
1366;SDS011;16877;48.810;9.282;2023-06-04T14:30:03;4.57;;;3.38;;
1366;SDS011;16877;48.810;9.282;2023-06-04T14:32:31;4.43;;;3.63;;
1366;SDS011;16877;48.810;9.282;2023-06-04T14:34:59;4.20;;;2.92;;
1366;SDS011;16877;48.810;9.282;2023-06-04T14:37:28;3.30;;;2.80;;
1366;SDS011;16877;48.810;9.282;2023-06-04T14:39:57;4.07;;;3.40;;
1366;SDS011;16877;48.810;9.282;2023-06-04T14:42:24;4.13;;;3.60;;
1366;SDS011;16877;48.810;9.282;2023-06-04T14:44:52;4.20;;;3.30;;
1366;SDS011;16877;48.810;9.282;2023-06-04T14:47:20;3.88;;;3.45;;
1366;SDS011;16877;48.810;9.282;2023-06-04T14:49:47;4.22;;;3.42;;
1366;SDS011;16877;48.810;9.282;2023-06-04T14:52:16;4.20;;;3.20;;
1366;SDS011;16877;48.810;9.282;2023-06-04T14:54:45;4.32;;;3.92;;
1366;SDS011;16877;48.810;9.282;2023-06-04T14:57:13;3.85;;;3.33;;
1366;SDS011;16877;48.810;9.282;2023-06-04T14:59:41;4.35;;;2.95;;
1366;SDS011;16877;48.810;9.282;2023-06-04T15:02:09;4.30;;;3.35;;
1366;SDS011;16877;48.810;9.282;2023-06-04T15:04:37;4.60;;;3.40;;
1366;SDS011;16877;48.810;9.282;2023-06-04T15:07:07;3.83;;;3.42;;
1366;SDS011;16877;48.810;9.282;2023-06-04T15:09:34;3.50;;;3.10;;
1366;SDS011;16877;48.810;9.282;2023-06-04T15:12:18;3.85;;;3.28;;
1366;SDS011;16877;48.810;9.282;2023-06-04T15:14:46;5.15;;;3.40;;